罗盘
风向 的 风向 的 风向 到 风向 220° Stade Airport 11/29
风: 8 kt, 3 beaufort

3 kt

8 kt
改变
0 1.000 2.000 3.000 4.000 5.000
CAVOK
METAR EDDH 300950Z AUTO 22008KT 190V250 CAVOK 14/10 Q1009 NOSIG

METAR Stade Airport - EDHS

Stade Airport是Stade,德国中的小机场。 该机场有一条跑道: 11/29. 该领域的国际民航组织标志是EDHS.

这份报告是针对2022年9月30日 11:50, 当地时间在Hamburg Airport进行的。

机场观察

风向为220°,速度为8 kt。 风向在190°和250°之间变化。

天气为CAVOK。这意味着在5.000 ft或MSA(最低安全高度)以下(以较高者为准)以下没有云。这也意味着没有观测到积雨云或高耸的积云,可见度为10 km 或者更多或更高。此外,不会有雾,降雨或其他重要天气。

温度和风寒是14 °C。 露点为10 °C,相对湿度为77%。 海平面上的气压为1009 hPa (QNH)。

白天

今天,太阳从07:21升起,在19:02降落。 这适用于Stade Airport,世界夏令时可能有所不同。 当地时间与世界标准时间之间的时差为+2 小时。 夏令时目前正在进行中。

公司介绍

我们没有关于这个机场的公司信息。

体会

到Vliegles.nl去找飞行课程,跳伞和其他飞行体验。 浏览页面,了解Stade Airport附近所有可用的活动。 你也可以使用搜索功能来寻找你所在地附近的特定飞行课程、跳伞或其他飞行体验。

跑道

Id 标题 侧风 逆风 侧风 %
11/29 110°-290° 8 kt 3 kt 94 %

逆风成分最大的方向会被突出显示,并用于横风计算。 这并不一定意味着这个方向在使用。

温度 & 天气

温度 14 °C
露点 10 °C
相对湿度 77%
Kp-index 2 (0-9)

白天

日出
07:20
中午
13:10
日落
19:00 (6h 51m)

小工具

你想在你的网站上有一个关于Stade Airport的当前航空天气(METAR)的小部件吗?

</> 显示HTML代码

我们和第三方通过cookies跟踪您在我们网站上的上网行为。如果您继续,我们认为您同意我们的cookie政策。 了解更多